sensor_id;sensor_type;location;lat;lon;timestamp;P1;durP1;ratioP1;P2;durP2;ratioP2
1887;SDS011;944;51.574;6.980;2023-03-14T08:00:27;6.07;;;4.67;;
1887;SDS011;944;51.574;6.980;2023-03-14T08:02:55;7.37;;;5.30;;
1887;SDS011;944;51.574;6.980;2023-03-14T08:05:22;6.00;;;4.50;;
1887;SDS011;944;51.574;6.980;2023-03-14T08:07:49;6.27;;;4.70;;
1887;SDS011;944;51.574;6.980;2023-03-14T08:13:57;8.67;;;6.50;;
1887;SDS011;944;51.574;6.980;2023-03-14T08:19:45;7.60;;;6.80;;
1887;SDS011;944;51.574;6.980;2023-03-14T08:22:12;9.30;;;7.10;;
1887;SDS011;944;51.574;6.980;2023-03-14T08:24:39;11.13;;;7.37;;
1887;SDS011;944;51.574;6.980;2023-03-14T08:27:07;8.60;;;7.00;;
1887;SDS011;944;51.574;6.980;2023-03-14T08:32:34;7.90;;;6.00;;
1887;SDS011;944;51.574;6.980;2023-03-14T08:35:02;6.73;;;5.97;;
1887;SDS011;944;51.574;6.980;2023-03-14T08:37:30;7.70;;;5.40;;
1887;SDS011;944;51.574;6.980;2023-03-14T08:40:00;5.80;;;5.30;;
1887;SDS011;944;51.574;6.980;2023-03-14T08:42:32;8.30;;;5.07;;
1887;SDS011;944;51.574;6.980;2023-03-14T08:52:26;3.93;;;3.53;;
1887;SDS011;944;51.574;6.980;2023-03-14T08:54:53;5.30;;;3.00;;
1887;SDS011;944;51.574;6.980;2023-03-14T08:57:20;9.20;;;5.40;;
1887;SDS011;944;51.574;6.980;2023-03-14T08:59:52;5.50;;;3.80;;
1887;SDS011;944;51.574;6.980;2023-03-14T09:02:24;5.10;;;4.10;;
1887;SDS011;944;51.574;6.980;2023-03-14T09:04:52;4.47;;;3.70;;
1887;SDS011;944;51.574;6.980;2023-03-14T09:07:20;7.80;;;4.23;;
1887;SDS011;944;51.574;6.980;2023-03-14T09:09:51;7.30;;;4.70;;
1887;SDS011;944;51.574;6.980;2023-03-14T09:12:18;5.80;;;4.50;;
1887;SDS011;944;51.574;6.980;2023-03-14T09:14:46;5.33;;;4.93;;
1887;SDS011;944;51.574;6.980;2023-03-14T09:17:13;7.67;;;5.07;;
1887;SDS011;944;51.574;6.980;2023-03-14T09:19:40;7.77;;;4.53;;
1887;SDS011;944;51.574;6.980;2023-03-14T09:22:07;2.17;;;2.07;;
1887;SDS011;944;51.574;6.980;2023-03-14T09:24:36;1.10;;;1.10;;
1887;SDS011;944;51.574;6.980;2023-03-14T09:27:05;1.87;;;1.20;;
1887;SDS011;944;51.574;6.980;2023-03-14T09:33:16;1.00;;;1.00;;
1887;SDS011;944;51.574;6.980;2023-03-14T09:35:46;1.30;;;1.17;;
1887;SDS011;944;51.574;6.980;2023-03-14T09:38:13;1.90;;;1.50;;
1887;SDS011;944;51.574;6.980;2023-03-14T09:40:40;2.13;;;1.30;;
1887;SDS011;944;51.574;6.980;2023-03-14T09:43:09;4.63;;;1.57;;
1887;SDS011;944;51.574;6.980;2023-03-14T09:45:39;2.00;;;1.80;;
1887;SDS011;944;51.574;6.980;2023-03-14T09:48:11;3.80;;;1.50;;
1887;SDS011;944;51.574;6.980;2023-03-14T09:50:43;1.20;;;1.10;;
1887;SDS011;944;51.574;6.980;2023-03-14T09:53:18;4.90;;;1.80;;
1887;SDS011;944;51.574;6.980;2023-03-14T09:55:50;2.47;;;1.40;;
1887;SDS011;944;51.574;6.980;2023-03-14T09:58:20;1.80;;;1.70;;
1887;SDS011;944;51.574;6.980;2023-03-14T10:00:50;2.30;;;1.60;;
1887;SDS011;944;51.574;6.980;2023-03-14T10:03:26;1.87;;;1.77;;
1887;SDS011;944;51.574;6.980;2023-03-14T10:05:58;3.13;;;2.10;;
1887;SDS011;944;51.574;6.980;2023-03-14T10:08:29;1.97;;;1.80;;
1887;SDS011;944;51.574;6.980;2023-03-14T10:10:59;1.90;;;1.70;;
1887;SDS011;944;51.574;6.980;2023-03-14T10:13:29;2.13;;;1.70;;
1887;SDS011;944;51.574;6.980;2023-03-14T10:15:59;2.40;;;2.20;;
1887;SDS011;944;51.574;6.980;2023-03-14T10:18:29;2.97;;;2.00;;
1887;SDS011;944;51.574;6.980;2023-03-14T10:21:03;2.60;;;1.53;;
1887;SDS011;944;51.574;6.980;2023-03-14T10:23:33;3.57;;;1.80;;
1887;SDS011;944;51.574;6.980;2023-03-14T10:26:08;3.27;;;1.90;;
1887;SDS011;944;51.574;6.980;2023-03-14T10:28:44;6.27;;;1.80;;
1887;SDS011;944;51.574;6.980;2023-03-14T10:31:13;4.80;;;1.97;;
1887;SDS011;944;51.574;6.980;2023-03-14T10:33:41;3.17;;;1.90;;
1887;SDS011;944;51.574;6.980;2023-03-14T10:36:15;2.03;;;1.83;;
1887;SDS011;944;51.574;6.980;2023-03-14T10:38:46;7.67;;;1.87;;
1887;SDS011;944;51.574;6.980;2023-03-14T10:41:15;4.63;;;2.00;;
1887;SDS011;944;51.574;6.980;2023-03-14T10:43:46;3.70;;;2.10;;
1887;SDS011;944;51.574;6.980;2023-03-14T10:46:18;6.83;;;1.70;;
1887;SDS011;944;51.574;6.980;2023-03-14T10:48:48;5.13;;;1.50;;
1887;SDS011;944;51.574;6.980;2023-03-14T10:54:30;3.50;;;1.83;;
1887;SDS011;944;51.574;6.980;2023-03-14T10:57:57;4.30;;;1.60;;
1887;SDS011;944;51.574;6.980;2023-03-14T11:00:28;6.63;;;2.30;;
1887;SDS011;944;51.574;6.980;2023-03-14T11:03:01;2.80;;;1.57;;
1887;SDS011;944;51.574;6.980;2023-03-14T11:05:38;1.90;;;1.37;;
1887;SDS011;944;51.574;6.980;2023-03-14T11:08:11;6.00;;;1.20;;
1887;SDS011;944;51.574;6.980;2023-03-14T11:10:53;1.33;;;1.20;;
1887;SDS011;944;51.574;6.980;2023-03-14T11:13:31;2.17;;;1.87;;
1887;SDS011;944;51.574;6.980;2023-03-14T11:16:18;2.77;;;1.57;;
1887;SDS011;944;51.574;6.980;2023-03-14T11:22:49;4.93;;;1.50;;
1887;SDS011;944;51.574;6.980;2023-03-14T11:25:39;1.93;;;1.33;;
1887;SDS011;944;51.574;6.980;2023-03-14T11:28:38;1.67;;;1.50;;
1887;SDS011;944;51.574;6.980;2023-03-14T11:35:07;4.00;;;1.47;;
1887;SDS011;944;51.574;6.980;2023-03-14T11:37:44;1.13;;;1.03;;
1887;SDS011;944;51.574;6.980;2023-03-14T11:40:16;2.13;;;1.17;;
1887;SDS011;944;51.574;6.980;2023-03-14T11:42:48;3.33;;;1.40;;
1887;SDS011;944;51.574;6.980;2023-03-14T11:45:29;3.87;;;1.80;;
1887;SDS011;944;51.574;6.980;2023-03-14T11:48:16;3.23;;;1.40;;
1887;SDS011;944;51.574;6.980;2023-03-14T11:51:21;5.00;;;1.80;;
1887;SDS011;944;51.574;6.980;2023-03-14T12:03:45;9.70;;;2.00;;
1887;SDS011;944;51.574;6.980;2023-03-14T12:50:00;19.03;;;2.47;;
1887;SDS011;944;51.574;6.980;2023-03-14T14:16:25;14.37;;;2.73;;
1887;SDS011;944;51.574;6.980;2023-03-14T14:21:36;9.93;;;2.47;;
1887;SDS011;944;51.574;6.980;2023-03-14T15:47:36;13.93;;;2.50;;
1887;SDS011;944;51.574;6.980;2023-03-14T15:56:19;2.93;;;1.60;;
1887;SDS011;944;51.574;6.980;2023-03-14T16:05:08;4.60;;;2.10;;
1887;SDS011;944;51.574;6.980;2023-03-14T16:08:33;10.30;;;2.43;;
1887;SDS011;944;51.574;6.980;2023-03-14T16:11:27;14.13;;;2.20;;
1887;SDS011;944;51.574;6.980;2023-03-14T16:14:29;5.50;;;1.93;;
1887;SDS011;944;51.574;6.980;2023-03-14T16:17:24;3.70;;;1.90;;
1887;SDS011;944;51.574;6.980;2023-03-14T16:20:00;9.47;;;2.67;;
1887;SDS011;944;51.574;6.980;2023-03-14T16:26:29;9.37;;;2.37;;
1887;SDS011;944;51.574;6.980;2023-03-14T16:29:02;7.90;;;2.40;;
1887;SDS011;944;51.574;6.980;2023-03-14T16:31:33;8.37;;;2.07;;
1887;SDS011;944;51.574;6.980;2023-03-14T16:34:17;8.30;;;2.20;;
1887;SDS011;944;51.574;6.980;2023-03-14T16:36:50;11.33;;;2.07;;
1887;SDS011;944;51.574;6.980;2023-03-14T16:39:17;10.23;;;2.13;;
1887;SDS011;944;51.574;6.980;2023-03-14T16:41:44;3.63;;;1.90;;
1887;SDS011;944;51.574;6.980;2023-03-14T16:44:13;10.70;;;1.93;;
1887;SDS011;944;51.574;6.980;2023-03-14T16:46:42;4.63;;;1.93;;
1887;SDS011;944;51.574;6.980;2023-03-14T16:49:09;7.07;;;1.90;;
1887;SDS011;944;51.574;6.980;2023-03-14T16:51:36;8.90;;;2.40;;
1887;SDS011;944;51.574;6.980;2023-03-14T16:57:47;6.13;;;1.73;;
1887;SDS011;944;51.574;6.980;2023-03-14T17:00:20;8.43;;;2.30;;
1887;SDS011;944;51.574;6.980;2023-03-14T17:02:48;5.57;;;2.10;;
1887;SDS011;944;51.574;6.980;2023-03-14T17:05:15;10.30;;;2.20;;
1887;SDS011;944;51.574;6.980;2023-03-14T17:11:24;6.03;;;1.97;;
1887;SDS011;944;51.574;6.980;2023-03-14T17:13:55;6.77;;;3.20;;
1887;SDS011;944;51.574;6.980;2023-03-14T17:16:25;11.47;;;2.17;;
1887;SDS011;944;51.574;6.980;2023-03-14T17:18:55;11.60;;;2.60;;
1887;SDS011;944;51.574;6.980;2023-03-14T17:21:28;7.63;;;2.10;;
1887;SDS011;944;51.574;6.980;2023-03-14T17:23:55;12.97;;;2.50;;
1887;SDS011;944;51.574;6.980;2023-03-14T17:26:28;8.20;;;2.27;;
1887;SDS011;944;51.574;6.980;2023-03-14T17:29:04;7.17;;;2.13;;
1887;SDS011;944;51.574;6.980;2023-03-14T17:36:05;10.00;;;2.93;;
1887;SDS011;944;51.574;6.980;2023-03-14T17:38:35;11.97;;;2.70;;
1887;SDS011;944;51.574;6.980;2023-03-14T17:41:12;8.20;;;2.43;;
1887;SDS011;944;51.574;6.980;2023-03-14T17:43:41;8.37;;;2.63;;
1887;SDS011;944;51.574;6.980;2023-03-14T17:46:22;9.03;;;2.77;;
1887;SDS011;944;51.574;6.980;2023-03-14T17:48:51;8.60;;;2.33;;
1887;SDS011;944;51.574;6.980;2023-03-14T17:55:07;7.13;;;2.27;;
1887;SDS011;944;51.574;6.980;2023-03-14T17:57:36;5.63;;;2.10;;
1887;SDS011;944;51.574;6.980;2023-03-14T18:00:07;15.43;;;2.57;;
1887;SDS011;944;51.574;6.980;2023-03-14T18:02:43;7.53;;;2.63;;
1887;SDS011;944;51.574;6.980;2023-03-14T18:05:12;6.70;;;2.40;;
1887;SDS011;944;51.574;6.980;2023-03-14T18:07:39;10.70;;;2.80;;
1887;SDS011;944;51.574;6.980;2023-03-14T18:10:07;7.27;;;3.03;;
1887;SDS011;944;51.574;6.980;2023-03-14T18:12:37;13.93;;;3.00;;
1887;SDS011;944;51.574;6.980;2023-03-14T20:05:04;12.97;;;2.30;;
1887;SDS011;944;51.574;6.980;2023-03-14T20:37:06;9.67;;;2.83;;
1887;SDS011;944;51.574;6.980;2023-03-14T21:51:35;15.33;;;2.87;;
1887;SDS011;944;51.574;6.980;2023-03-14T22:32:17;17.33;;;3.73;;
1887;SDS011;944;51.574;6.980;2023-03-14T22:39:32;16.07;;;4.60;;
1887;SDS011;944;51.574;6.980;2023-03-14T23:35:48;14.43;;;2.83;;
1887;SDS011;944;51.574;6.980;2023-03-14T23:39:09;11.97;;;2.83;;
1887;SDS011;944;51.574;6.980;2023-03-14T23:41:40;12.23;;;3.00;;
1887;SDS011;944;51.574;6.980;2023-03-14T23:44:12;15.77;;;2.57;;
1887;SDS011;944;51.574;6.980;2023-03-14T23:46:41;12.27;;;3.83;;
1887;SDS011;944;51.574;6.980;2023-03-14T23:49:08;12.17;;;2.80;;
1887;SDS011;944;51.574;6.980;2023-03-14T23:51:37;9.63;;;3.20;;
1887;SDS011;944;51.574;6.980;2023-03-14T23:54:04;13.77;;;3.27;;
1887;SDS011;944;51.574;6.980;2023-03-14T23:56:37;16.00;;;3.17;;
1887;SDS011;944;51.574;6.980;2023-03-14T23:59:05;17.83;;;3.23;;
